Latest Weather Observations for Centre Island

IDD60801

Issued at 8:01 am CST Friday 28 April 2017 (issued every 30 minutes, with the page automatically refreshed every 10 minutes)

About weather observations | Map of weather stations | Latest weather observations for NT | Other Formats
Station Details ID: 014703 Name: CENTRE ISLAND Lat: -15.74 Lon: 136.82 Height: 12.2 m
Data from the previous 72 hours. | See also: Recent months at Centre Island
Date/Time
CST
Temp
°C
App
Temp
°C
Dew
Point
°C
Rel
Hum
%
Delta-T
°C
Wind Press
QNH
hPa
Press
MSL
hPa
Rain since
9am
mm
Dir  Spd
km/h
Gust
km/h
Spd
kts
Gust
kts
28/08:00am 23.0 13.4 7.9 38 7.9 SE 48 61 26 33 1016.0 1015.9 0.0
28/07:30am 22.8 13.1 8.9 41 7.4 SE 50 61 27 33 1015.7 1015.6 0.0
28/07:00am 22.8 12.2 7.0 36 8.2 SE 52 61 28 33 1015.4 1015.3 0.0
28/06:30am 23.2 12.3 9.6 42 7.4 SE 57 69 31 37 1014.9 1014.8 0.0
28/06:03am 23.5 13.6 8.4 38 8.0 SE 50 72 27 39 1014.7 1014.6 0.0
28/06:00am 23.3 14.5 9.7 42 7.4 SE 46 59 25 32 1014.7 1014.6 0.0
28/05:30am 23.7 16.5 10.7 44 7.2 SE 39 50 21 27 1014.4 1014.3 0.0
28/05:00am 23.8 17.9 10.5 43 7.4 SE 32 41 17 22 1014.4 1014.3 0.0
28/04:30am 24.0 17.0 9.9 41 7.7 SE 37 44 20 24 1014.3 1014.2 0.0
28/04:00am 24.3 17.8 10.2 41 7.8 SSE 35 43 19 23 1014.2 1014.1 0.0
28/03:30am 24.6 17.9 9.7 39 8.2 SSE 35 43 19 23 1014.1 1014.0 0.0
28/03:00am 24.6 18.3 9.7 39 8.2 SSE 33 41 18 22 1014.0 1013.9 0.0
28/02:30am 25.0 18.4 12.6 46 7.1 SSE 39 44 21 24 1013.9 1013.8 0.0
28/02:00am 25.2 18.5 11.0 41 8.0 SSE 37 44 20 24 1013.7 1013.6 0.0
28/01:30am 25.4 18.4 11.2 41 8.0 SSE 39 46 21 25 1013.8 1013.7 0.0
28/01:00am 25.7 20.1 13.2 46 7.3 SSE 35 43 19 23 1013.8 1013.7 0.0
28/12:30am 26.2 19.5 13.3 45 7.6 SSE 41 46 22 25 1013.9 1013.8 0.0
28/12:00am 26.3 20.9 13.8 46 7.4 SSE 35 41 19 22 1014.1 1014.0 0.0
 
Date/Time
CST
Temp
°C
App
Temp
°C
Dew
Point
°C
Rel
Hum
%
Delta-T
°C
Wind Press
QNH
hPa
Press
MSL
hPa
Rain since
9am
mm
Dir  Spd
km/h
Gust
km/h
Spd
kts
Gust
kts
27/11:30pm 26.7 21.1 13.4 43 7.8 SSE 35 43 19 23 1014.3 1014.2 0.0
27/11:00pm 27.4 21.8 12.2 39 8.8 SSE 33 39 18 21 1014.6 1014.5 0.0
27/10:30pm 27.3 23.1 14.7 46 7.6 SSE 30 35 16 19 1014.5 1014.4 0.0
27/10:00pm 28.3 23.9 15.2 44 8.0 SE 32 39 17 21 1014.4 1014.3 0.0
27/09:30pm 28.3 24.8 14.5 43 8.3 SE 26 32 14 17 1014.3 1014.2 0.0
27/09:00pm 28.0 27.6 19.0 58 5.8 SE 19 20 10 11 1014.0 1013.9 0.0
27/08:30pm 27.9 28.1 19.4 60 5.5 SE 17 20 9 11 1013.8 1013.7 0.0
27/08:00pm 27.8 27.7 18.8 58 5.8 ESE 17 20 9 11 1013.6 1013.5 0.0
27/07:30pm 27.8 27.5 18.2 56 6.1 ESE 17 20 9 11 1013.4 1013.3 0.0
27/07:00pm 27.8 27.1 17.3 52 6.6 ESE 17 20 9 11 1013.2 1013.1 0.0
27/06:30pm 28.0 27.1 16.9 51 6.9 ESE 17 19 9 10 1012.9 1012.8 0.0
27/06:00pm 28.4 27.1 15.7 46 7.8 ESE 17 20 9 11 1012.6 1012.5 0.0
27/05:30pm 29.0 27.5 16.2 46 7.9 E 19 22 10 12 1012.3 1012.2 0.0
27/05:00pm 29.7 28.1 16.1 43 8.4 E 19 22 10 12 1012.0 1011.9 0.0
27/04:30pm 30.2 27.8 14.3 38 9.6 E 20 22 11 12 1011.8 1011.7 0.0
27/04:00pm 30.5 28.4 14.6 38 9.7 ESE 19 26 10 14 1011.8 1011.7 0.0
27/03:30pm 30.8 28.7 14.8 37 9.8 ESE 19 24 10 13 1012.1 1012.0 0.0
27/03:00pm 30.8 27.8 13.6 35 10.3 ESE 22 26 12 14 1012.3 1012.2 0.0
27/02:30pm 30.6 27.2 12.5 33 10.7 ESE 22 26 12 14 1012.7 1012.6 0.0
27/02:00pm 30.6 27.5 13.4 35 10.3 ESE 22 26 12 14 1013.2 1013.1 0.0
27/01:30pm 30.7 26.6 13.9 36 10.1 ESE 28 32 15 17 1013.6 1013.5 0.0
27/01:00pm 30.1 26.1 14.2 38 9.6 ESE 28 33 15 18 1013.7 1013.6 0.0
27/12:30pm 29.8 24.7 13.1 36 9.9 ESE 32 37 17 20 1014.3 1014.2 0.0
27/12:00pm 29.1 23.6 12.5 36 9.7 ESE 33 39 18 21 1014.9 1014.8 0.0
27/11:30am 29.4 24.3 13.6 38 9.4 ESE 33 39 18 21 1015.4 1015.3 0.0
27/11:00am 29.1 23.2 12.5 36 9.7 ESE 35 46 19 25 1015.9 1015.8 0.0
27/10:30am 28.8 22.2 12.7 37 9.4 SE 39 44 21 24 1015.9 1015.8 0.0
27/10:00am 28.3 22.3 12.2 37 9.4 SE 35 43 19 23 1016.2 1016.1 0.0
27/09:30am 27.6 21.6 13.2 41 8.5 SE 37 43 20 23 1016.0 1015.9 0.0
27/09:00am 27.0 21.3 14.1 45 7.7 SE 37 43 20 23 1015.8 1015.7 0.0
27/08:30am 26.6 20.7 13.7 45 7.6 SSE 37 44 20 24 1015.4 1015.3 0.0
27/08:00am 26.3 19.0 11.6 40 8.4 SSE 41 50 22 27 1015.1 1015.0 0.0
27/07:30am 26.3 20.1 13.8 46 7.4 SE 39 46 21 25 1014.5 1014.4 0.0
27/07:00am 26.1 19.5 13.6 46 7.4 SE 41 50 22 27 1013.7 1013.6 0.0
27/06:30am 26.3 20.0 15.7 52 6.5 SE 43 52 23 28 1012.9 1012.8 0.0
27/06:00am 26.4 19.8 14.8 49 7.0 SSE 43 50 23 27 1012.4 1012.3 0.0
27/05:30am 26.8 21.2 16.4 53 6.4 SE 41 50 22 27 1012.0 1011.9 0.0
27/05:00am 26.9 21.3 17.4 56 6.0 SSE 43 48 23 26 1011.5 1011.4 0.0
27/04:30am 27.0 22.2 18.3 59 5.5 SSE 41 48 22 26 1011.4 1011.3 0.0
27/04:00am 26.9 24.8 21.6 72 3.5 SSE 35 41 19 22 1011.3 1011.2 0.0
27/03:30am 27.3 26.9 23.1 78 2.9 SSE 30 35 16 19 1011.2 1011.1 0.0
27/03:00am 27.3 28.3 24.2 83 2.1 SSE 26 32 14 17 1011.2 1011.1 0.0
27/02:30am 27.2 27.5 24.3 84 2.0 SSE 30 33 16 18 1011.3 1011.2 0.0
27/02:00am 27.5 28.1 24.7 85 1.9 SSE 30 35 16 19 1011.7 1011.6 0.0
27/01:30am 27.4 28.4 24.8 86 1.8 SSE 28 33 15 18 1011.9 1011.8 0.0
27/01:00am 28.0 30.5 24.8 83 2.2 SSE 20 26 11 14 1012.1 1012.0 0.0
27/12:30am 28.4 30.8 24.6 80 2.6 SE 20 22 11 12 1012.1 1012.0 0.0
27/12:00am 28.3 31.2 24.5 80 2.6 ESE 17 19 9 10 1012.5 1012.4 0.0
 
Date/Time
CST
Temp
°C
App
Temp
°C
Dew
Point
°C
Rel
Hum
%
Delta-T
°C
Wind Press
QNH
hPa
Press
MSL
hPa
Rain since
9am
mm
Dir  Spd
km/h
Gust
km/h
Spd
kts
Gust
kts
26/11:30pm 28.2 31.8 24.4 80 2.6 ESE 13 15 7 8 1012.8 1012.7 0.0
26/11:00pm 28.0 32.0 24.4 81 2.5 E 11 13 6 7 1013.1 1013.0 0.0
26/10:30pm 28.0 31.9 24.2 80 2.6 ENE 11 13 6 7 1013.2 1013.1 0.0
26/10:00pm 28.1 32.2 24.5 81 2.5 ENE 11 13 6 7 1013.4 1013.3 0.0
26/09:30pm 28.2 31.8 24.4 80 2.6 ENE 13 15 7 8 1013.5 1013.4 0.0
26/09:00pm 28.2 31.7 24.2 79 2.8 ENE 13 17 7 9 1013.4 1013.3 0.0
26/08:30pm 28.4 31.5 24.2 78 2.9 ENE 15 19 8 10 1013.3 1013.2 0.0
26/08:00pm 28.6 31.5 24.4 78 2.9 ENE 17 20 9 11 1013.2 1013.1 0.0
26/07:30pm 28.6 31.3 24.2 77 3.1 ENE 17 20 9 11 1012.9 1012.8 0.0
26/07:00pm 28.7 30.9 24.0 76 3.3 ENE 19 24 10 13 1012.4 1012.3 0.0
26/06:30pm 28.9 30.8 23.8 74 3.5 ENE 20 26 11 14 1011.9 1011.8 0.0
26/06:00pm 29.1 30.9 23.5 72 3.9 NE 20 28 11 15 1011.7 1011.6 0.0
26/05:30pm 29.5 30.8 23.4 69 4.2 ENE 22 28 12 15 1011.3 1011.2 0.0
26/05:00pm 30.0 31.3 23.4 67 4.5 ENE 22 28 12 15 1010.9 1010.8 0.0
26/04:30pm 30.1 31.3 23.8 69 4.4 ENE 24 28 13 15 1010.8 1010.7 0.0
26/04:00pm 30.5 31.3 23.2 65 5.0 ENE 24 30 13 16 1010.6 1010.5 0.0
26/03:30pm 31.3 32.8 23.7 64 5.3 E 22 28 12 15 1010.4 1010.3 0.0
26/03:00pm 32.5 34.2 23.4 58 6.3 E 20 24 11 13 1010.5 1010.4 0.0
26/02:30pm 31.7 33.5 23.5 62 5.7 E 20 26 11 14 1010.5 1010.4 0.0
26/02:00pm 32.6 33.3 23.0 57 6.6 E 24 30 13 16 1010.5 1010.4 0.0
26/01:30pm 32.6 33.9 23.3 58 6.4 E 22 28 12 15 1010.9 1010.8 0.0
26/01:00pm 31.6 34.0 24.2 65 5.2 ESE 19 24 10 13 1011.3 1011.2 0.0
26/12:30pm 31.2 33.7 23.8 64 5.1 ESE 17 20 9 11 1011.9 1011.8 0.0
26/12:00pm 31.3 33.9 23.9 64 5.1 SE 17 20 9 11 1012.4 1012.3 0.0
26/11:30am 30.9 34.3 24.1 67 4.7 SE 13 15 7 8 1012.7 1012.6 0.0
26/11:00am 30.3 34.3 23.7 68 4.6 ESE 9 13 5 7 1012.6 1012.5 0.0
26/10:30am 29.6 32.9 23.8 71 4.0 SE 13 15 7 8 1012.7 1012.6 0.0
26/10:00am 29.1 31.7 24.0 74 3.5 SSE 17 20 9 11 1012.6 1012.5 0.0
26/09:30am 28.8 30.7 23.7 74 3.5 SSE 20 24 11 13 1012.4 1012.3 0.0
26/09:00am 28.4 30.3 23.8 76 3.2 SSE 20 24 11 13 1012.3 1012.2 0.0
26/08:30am 27.7 29.3 23.3 77 3.0 SSE 20 24 11 13 1012.4 1012.3 0.0
26/08:00am 27.2 28.9 23.4 80 2.6 SSE 20 22 11 12 1012.2 1012.1 0.0
26/07:30am 26.6 28.4 23.5 83 2.1 SSE 20 22 11 12 1011.9 1011.8 0.0
26/07:00am 26.6 29.0 24.3 87 1.6 SSE 19 22 10 12 1011.5 1011.4 0.0
26/06:30am 26.4 28.5 24.1 87 1.6 SSE 20 22 11 12 1011.2 1011.1 0.0
26/06:00am 26.3 28.5 24.0 87 1.6 SSE 19 20 10 11 1010.9 1010.8 0.0
26/05:30am 26.7 29.6 24.4 87 1.6 SSE 17 19 9 10 1010.7 1010.6 0.0
26/05:00am 26.8 29.6 24.3 86 1.7 SSE 17 20 9 11 1010.5 1010.4 0.0
26/04:30am 28.0 31.0 24.6 82 2.4 SE 17 19 9 10 1010.5 1010.4 0.0
26/04:00am 27.7 30.7 23.3 77 3.0 ESE 13 15 7 8 1010.6 1010.5 0.0
26/03:30am 27.7 30.2 23.1 76 3.1 ESE 15 17 8 9 1010.7 1010.6 0.0
26/03:00am 27.9 30.6 23.5 77 3.0 E 15 17 8 9 1011.0 1010.9 0.0
26/02:30am 27.9 30.2 23.5 77 3.0 E 17 19 9 10 1010.9 1010.8 0.0
26/02:00am 27.9 30.2 23.5 77 3.0 E 17 20 9 11 1011.0 1010.9 0.0
26/01:30am 27.9 30.6 23.5 77 3.0 E 15 17 8 9 1011.4 1011.3 0.0
26/01:00am 27.9 31.0 23.5 77 3.0 ENE 13 17 7 9 1011.9 1011.8 0.0
26/12:30am 27.9 31.0 23.5 77 3.0 ENE 13 15 7 8 1012.2 1012.1 0.0
26/12:00am 27.9 31.3 23.3 76 3.1 ENE 11 13 6 7 1012.2 1012.1 0.0
 
Date/Time
CST
Temp
°C
App
Temp
°C
Dew
Point
°C
Rel
Hum
%
Delta-T
°C
Wind Press
QNH
hPa
Press
MSL
hPa
Rain since
9am
mm
Dir  Spd
km/h
Gust
km/h
Spd
kts
Gust
kts
25/11:30pm 28.0 31.4 23.4 76 3.2 NE 11 13 6 7 1012.3 1012.2 0.0
25/11:00pm 28.1 31.2 23.5 76 3.2 ENE 13 15 7 8 1012.6 1012.5 0.0
25/10:30pm 28.3 30.7 23.7 76 3.2 ENE 17 20 9 11 1012.7 1012.6 0.0
25/10:00pm 28.4 30.5 23.8 76 3.2 ENE 19 24 10 13 1012.9 1012.8 0.0
25/09:30pm 28.4 30.2 23.5 75 3.4 ENE 20 24 11 13 1013.0 1012.9 0.0
25/09:00pm 28.6 30.4 23.5 74 3.5 E 20 24 11 13 1013.0 1012.9 0.0
25/08:30pm 28.5 30.4 23.4 74 3.5 E 19 24 10 13 1012.8 1012.7 0.0
25/08:00pm 28.7 30.3 23.8 75 3.4 ENE 22 24 12 13 1012.5 1012.4 0.0
25/07:30pm 28.7 30.4 23.4 73 3.6 ENE 20 26 11 14 1012.1 1012.0 0.0
25/07:00pm 28.8 30.6 23.5 73 3.6 ENE 20 24 11 13 1011.7 1011.6 0.0
25/06:30pm 28.9 30.0 23.6 73 3.7 ENE 24 32 13 17 1011.4 1011.3 0.0
25/06:00pm 29.3 30.6 23.3 70 4.1 E 22 28 12 15 1011.2 1011.1 0.0
25/05:30pm 29.7 30.9 23.9 71 4.0 E 24 28 13 15 1010.9 1010.8 0.0
25/05:00pm 30.2 32.0 23.6 67 4.6 E 20 26 11 14 1010.5 1010.4 0.0
25/04:30pm 30.7 32.4 23.4 65 5.0 E 20 24 11 13 1010.2 1010.1 0.0
25/04:00pm 31.3 32.4 23.1 61 5.6 E 22 28 12 15 1010.0 1009.9 0.0
25/03:30pm 31.7 33.2 23.0 60 6.0 E 20 26 11 14 1010.2 1010.1 0.0
25/03:00pm 33.0 34.8 23.3 56 6.7 E 19 22 10 12 1010.3 1010.2 0.0
25/02:30pm 33.2 34.5 22.6 53 7.3 E 20 26 11 14 1010.6 1010.5 0.0
25/02:00pm 33.1 34.0 21.9 51 7.6 E 20 24 11 13 1010.8 1010.7 0.0
25/01:30pm 33.3 34.4 22.4 52 7.5 E 20 26 11 14 1010.9 1010.8 0.0
25/01:00pm 33.0 33.3 21.5 50 7.8 E 22 26 12 14 1011.3 1011.2 0.0
25/12:30pm 33.3 34.9 23.3 55 6.9 E 20 26 11 14 1011.7 1011.6 0.0
25/12:00pm 31.9 34.2 24.5 65 5.2 ESE 20 22 11 12 1012.3 1012.2 0.0
25/11:30am 31.3 34.1 24.9 69 4.5 ESE 19 22 10 12 1012.8 1012.7 0.0
25/11:00am 30.6 33.2 24.0 68 4.6 SE 17 19 9 10 1013.2 1013.1 0.0
25/10:30am 30.2 32.6 23.6 67 4.6 SE 17 20 9 11 1013.5 1013.4 0.0
25/10:00am 29.5 32.3 23.7 71 4.0 ESE 15 19 8 10 1013.5 1013.4 0.0
25/09:30am 28.4 30.6 23.3 74 3.5 SE 17 19 9 10 1013.2 1013.1 0.0
25/09:00am 27.9 30.1 22.6 73 3.6 SE 15 20 8 11 1013.0 1012.9 0.0
25/08:30am 27.9 30.1 23.3 76 3.1 SE 17 20 9 11 1012.7 1012.6 0.0

Other Formats:

Comma delimited format used in spreadsheet applications
http://www.bom.gov.au/fwo/IDD60801/IDD60801.94248.axf

JavaScript Object Notation format (JSON) in row-major order
http://www.bom.gov.au/fwo/IDD60801/IDD60801.94248.json